Time;durP1;ratioP1;P1;durP2;ratioP2;P2;SDS_P1;SDS_P2;PMS_P1;PMS_P2;Temp;Humidity;BMP_temperature;BMP_pressure;BME280_temperature;BME280_humidity;BME280_pressure;Samples;Min_cycle;Max_cycle;Signal;HPM_P1;HPM_P2
2021/11/10 00:00:36;;;;;;;77.63;42.60;;;;;;;3.40;78.09;102248.00;5038415;28;20025;-57
2021/11/10 00:03:02;;;;;;;76.55;42.20;;;;;;;3.46;77.56;102242.34;5038223;28;20029;-55
2021/11/10 00:05:27;;;;;;;71.43;39.67;;;;;;;3.35;77.28;102242.56;5038500;28;20033;-58
2021/11/10 00:07:53;;;;;;;67.95;40.47;;;;;;;3.21;77.76;102244.50;5038137;28;20026;-57
2021/11/10 00:10:18;;;;;;;76.20;41.85;;;;;;;3.17;79.19;102249.03;5038061;28;20036;-54
2021/11/10 00:12:44;;;;;;;72.25;39.83;;;;;;;3.13;78.42;102248.00;5038875;28;20423;-57
2021/11/10 00:15:10;;;;;;;70.35;39.58;;;;;;;3.04;79.25;102256.22;5044084;28;20440;-58
2021/11/10 00:17:36;;;;;;;71.05;38.88;;;;;;;3.04;79.15;102256.22;5040475;28;20317;-59
2021/11/10 00:20:04;;;;;;;62.33;37.15;;;;;;;2.98;79.13;102259.38;5039504;28;20291;-58
2021/11/10 00:22:30;;;;;;;61.35;36.75;;;;;;;3.06;79.06;102253.13;5038183;28;20033;-56
2021/11/10 00:24:55;;;;;;;64.38;36.63;;;;;;;3.05;78.68;102251.50;5039991;28;20025;-55
2021/11/10 00:27:21;;;;;;;64.13;37.13;;;;;;;2.98;79.25;102254.66;5048730;28;20393;-58
2021/11/10 00:29:48;;;;;;;61.55;34.72;;;;;;;2.94;79.31;102261.13;5037874;28;20064;-57
2021/11/10 00:32:13;;;;;;;61.75;35.17;;;;;;;2.90;79.65;102262.88;5037889;28;20367;-53
2021/11/10 00:34:39;;;;;;;59.35;35.22;;;;;;;2.90;79.81;102266.47;5037919;28;20059;-53
2021/11/10 00:37:04;;;;;;;55.05;34.88;;;;;;;2.87;79.59;102260.72;5037336;28;20094;-56
2021/11/10 00:39:30;;;;;;;57.70;34.08;;;;;;;2.79;79.31;102254.75;5037631;28;20025;-59
2021/11/10 00:41:55;;;;;;;54.17;33.85;;;;;;;2.76;79.85;102260.09;5037602;28;20025;-57
2021/11/10 00:44:20;;;;;;;55.17;31.83;;;;;;;2.76;80.29;102260.91;5037375;28;20072;-55
2021/11/10 00:46:46;;;;;;;54.30;32.97;;;;;;;2.74;80.10;102252.06;5037931;28;20029;-55
2021/11/10 00:49:11;;;;;;;56.42;32.67;;;;;;;2.74;80.29;102257.63;5037246;28;20048;-58
2021/11/10 00:51:36;;;;;;;47.75;30.20;;;;;;;2.69;80.22;102256.84;5037445;28;20051;-59
2021/11/10 00:54:02;;;;;;;45.88;29.13;;;;;;;2.68;80.68;102256.03;5037081;28;20038;-57
2021/11/10 00:56:27;;;;;;;44.65;29.83;;;;;;;2.66;80.46;102255.50;5037512;28;20018;-57
2021/11/10 00:58:53;;;;;;;48.80;31.17;;;;;;;2.65;80.81;102253.03;5037584;28;20036;-58
2021/11/10 01:01:18;;;;;;;48.95;30.40;;;;;;;2.64;80.49;102251.38;5036946;28;20074;-56
2021/11/10 01:03:44;;;;;;;48.92;30.33;;;;;;;2.61;80.54;102247.28;5037392;28;20365;-58
2021/11/10 01:06:10;;;;;;;45.13;27.98;;;;;;;2.61;80.04;102252.81;5036630;28;20074;-58
2021/11/10 01:08:35;;;;;;;39.75;26.55;;;;;;;2.58;79.61;102238.72;5036798;28;20033;-55
2021/11/10 01:11:01;;;;;;;48.72;27.85;;;;;;;2.52;79.29;102243.56;5037003;28;20026;-58
2021/11/10 01:13:27;;;;;;;43.88;28.73;;;;;;;2.51;80.06;102235.53;5037177;28;20090;-58
2021/11/10 01:15:52;;;;;;;48.53;29.60;;;;;;;2.49;80.59;102233.06;5033460;28;20101;-59
2021/11/10 01:18:18;;;;;;;46.13;30.48;;;;;;;2.46;80.20;102231.69;5021407;28;20014;-55
2021/11/10 01:20:45;;;;;;;49.45;30.83;;;;;;;2.52;79.98;102232.44;5037054;28;20033;-55
2021/11/10 01:23:11;;;;;;;54.30;31.92;;;;;;;2.51;79.59;102224.41;5036529;28;20030;-58
2021/11/10 01:25:38;;;;;;;49.88;31.00;;;;;;;2.51;79.51;102224.41;5036957;28;20091;-54
2021/11/10 01:28:05;;;;;;;52.15;32.70;;;;;;;2.47;79.39;102213.09;5036539;28;20076;-58
2021/11/10 01:30:30;;;;;;;55.83;33.75;;;;;;;2.58;80.06;102209.00;5036868;28;20031;-57
2021/11/10 01:32:56;;;;;;;54.65;32.80;;;;;;;2.69;79.71;102215.19;5036578;28;20140;-54
2021/11/10 01:35:21;;;;;;;50.33;31.33;;;;;;;2.63;79.70;102214.47;5036452;28;20017;-56
2021/11/10 01:37:47;;;;;;;57.53;31.85;;;;;;;2.59;80.43;102205.09;5036652;28;20056;-58
2021/11/10 01:40:15;;;;;;;51.83;30.02;;;;;;;2.56;79.51;102211.28;5036132;28;20332;-58
2021/11/10 01:42:42;;;;;;;55.20;31.35;;;;;;;2.49;79.61;102205.28;5036645;28;20024;-57
2021/11/10 01:45:09;;;;;;;54.40;29.77;;;;;;;2.46;80.26;102208.66;5036189;28;20025;-58
2021/11/10 01:47:35;;;;;;;50.03;29.15;;;;;;;2.50;80.83;102206.94;5036180;28;20384;-54
2021/11/10 01:50:00;;;;;;;49.17;29.08;;;;;;;2.45;79.34;102205.06;5036406;28;20029;-57
2021/11/10 01:52:26;;;;;;;51.97;30.77;;;;;;;2.44;80.17;102205.34;5035965;28;20427;-55
2021/11/10 01:54:52;;;;;;;54.65;31.73;;;;;;;2.49;80.75;102205.28;5036233;28;20026;-57
2021/11/10 01:57:17;;;;;;;58.90;33.75;;;;;;;2.66;80.51;102205.53;5050202;28;20013;-55
2021/11/10 01:59:46;;;;;;;54.10;30.85;;;;;;;2.65;79.50;102212.22;5036155;28;20333;-57
2021/11/10 02:02:20;;;;;;;54.30;30.73;;;;;;;2.68;79.26;102208.00;5035966;28;20057;-58
2021/11/10 02:04:49;;;;;;;48.53;29.45;;;;;;;2.68;78.00;102214.38;5036246;28;20108;-53
2021/11/10 02:07:17;;;;;;;56.03;32.30;;;;;;;2.56;78.46;102204.91;5035798;28;20021;-53
2021/11/10 02:09:43;;;;;;;51.10;29.23;;;;;;;2.43;79.58;102209.25;5035730;28;20017;-58
2021/11/10 02:12:10;;;;;;;58.15;31.45;;;;;;;2.35;79.81;102205.22;5035935;28;20421;-58
2021/11/10 02:14:36;;;;;;;50.60;28.83;;;;;;;2.27;79.54;102208.72;5035860;28;20555;-59
2021/11/10 02:17:02;;;;;;;56.60;30.48;;;;;;;2.22;80.32;102208.81;5034640;28;20068;-55
2021/11/10 02:19:28;;;;;;;56.53;30.92;;;;;;;2.25;80.45;102199.03;5035461;28;20024;-55
2021/11/10 02:21:56;;;;;;;54.08;31.58;;;;;;;2.21;79.93;102198.00;5035707;28;20383;-57
2021/11/10 02:24:23;;;;;;;53.70;30.42;;;;;;;2.13;80.83;102197.53;5035683;28;20099;-57
2021/11/10 02:26:49;;;;;;;54.80;29.73;;;;;;;2.11;81.07;102199.78;5035688;28;20036;-58
2021/11/10 02:29:21;;;;;;;52.47;31.25;;;;;;;2.13;81.33;102189.22;5035712;28;20025;-55
2021/11/10 02:31:48;;;;;;;51.17;28.65;;;;;;;2.16;80.67;102191.38;5035453;28;20061;-58
2021/11/10 02:34:13;;;;;;;51.13;29.65;;;;;;;2.14;80.47;102188.09;5035261;28;20083;-53
2021/11/10 02:36:39;;;;;;;56.90;32.33;;;;;;;2.13;80.83;102189.22;5035544;28;20025;-55
2021/11/10 02:39:17;;;;;;;52.90;31.70;;;;;;;2.12;81.34;102195.91;5035800;28;20072;-57
2021/11/10 02:41:47;;;;;;;63.60;33.80;;;;;;;2.17;82.30;102192.22;5035420;28;20029;-57
2021/11/10 02:44:16;;;;;;;59.95;32.10;;;;;;;2.20;81.98;102199.13;5035348;28;20332;-60
2021/11/10 02:46:43;;;;;;;53.78;31.88;;;;;;;2.21;81.94;102192.47;5035884;28;20033;-59
2021/11/10 02:49:09;;;;;;;60.15;32.50;;;;;;;2.23;81.79;102182.69;5035030;28;20052;-56
2021/11/10 02:51:35;;;;;;;59.63;33.30;;;;;;;2.23;81.58;102181.88;5035398;28;20025;-59
2021/11/10 02:54:01;;;;;;;58.08;31.83;;;;;;;2.18;81.02;102188.31;5031844;28;20033;-58
2021/11/10 02:56:26;;;;;;;57.38;31.45;;;;;;;2.12;80.53;102182.03;5027392;28;20030;-56
2021/11/10 02:58:51;;;;;;;57.13;32.40;;;;;;;2.08;81.17;102183.75;5032214;28;20025;-57
2021/11/10 03:01:17;;;;;;;59.45;32.08;;;;;;;2.09;81.64;102179.84;5018096;28;20365;-57
2021/11/10 03:03:42;;;;;;;55.08;32.22;;;;;;;2.04;81.06;102181.91;5015533;28;20116;-58
2021/11/10 03:06:07;;;;;;;60.22;32.92;;;;;;;2.02;81.69;102181.38;5016426;28;20406;-58
2021/11/10 03:08:33;;;;;;;54.97;32.58;;;;;;;1.99;81.61;102177.25;5027922;28;20030;-57
2021/11/10 03:10:59;;;;;;;58.17;32.45;;;;;;;1.95;80.85;102180.94;5015918;28;20421;-53
2021/11/10 03:13:24;;;;;;;56.17;32.08;;;;;;;1.92;81.31;102174.06;5015501;28;20057;-55
2021/11/10 03:15:50;;;;;;;61.30;32.60;;;;;;;1.91;81.59;102168.78;4997802;28;20014;-58
2021/11/10 03:18:15;;;;;;;57.45;33.08;;;;;;;2.03;82.24;102169.97;5015037;28;20059;-55
2021/11/10 03:20:41;;;;;;;60.20;32.95;;;;;;;2.13;81.68;102172.56;5015354;28;20424;-61
2021/11/10 03:23:07;;;;;;;66.47;32.08;;;;;;;2.27;82.57;102161.53;5015416;28;20032;-58
2021/11/10 03:25:34;;;;;;;67.00;33.28;;;;;;;2.48;82.60;102159.25;5015661;28;20408;-56
2021/11/10 03:28:00;;;;;;;58.35;32.03;;;;;;;2.64;82.79;102152.25;5015486;28;20084;-56
2021/11/10 03:30:26;;;;;;;57.22;33.83;;;;;;;2.77;82.76;102150.66;5022412;28;20034;-55
2021/11/10 03:32:52;;;;;;;58.35;31.65;;;;;;;2.87;82.22;102155.16;5028520;28;20026;-58
2021/11/10 03:35:19;;;;;;;60.47;33.08;;;;;;;2.97;82.27;102143.84;5019030;28;20037;-58
2021/11/10 03:37:44;;;;;;;52.85;31.50;;;;;;;3.05;82.20;102137.59;5019054;28;20365;-55
2021/11/10 03:40:10;;;;;;;54.90;32.58;;;;;;;3.16;81.97;102150.13;5018832;28;20025;-58
2021/11/10 03:42:36;;;;;;;55.60;31.63;;;;;;;3.20;81.61;102147.53;5019041;28;20021;-57
2021/11/10 03:45:02;;;;;;;55.60;32.58;;;;;;;3.25;82.18;102139.09;5018653;28;20022;-57
2021/11/10 03:47:27;;;;;;;56.15;33.30;;;;;;;3.23;81.82;102141.34;5021554;28;20441;-58
2021/11/10 03:49:53;;;;;;;61.03;32.60;;;;;;;3.19;82.30;102143.13;5038590;28;20030;-58
2021/11/10 03:52:19;;;;;;;52.65;30.02;;;;;;;3.17;83.04;102143.41;5038657;28;20029;-59
2021/11/10 03:54:45;;;;;;;54.38;31.10;;;;;;;3.18;82.93;102139.50;5038506;28;20080;-55
2021/11/10 03:57:11;;;;;;;55.75;33.35;;;;;;;3.14;82.46;102138.50;5037551;28;20021;-53
2021/11/10 03:59:37;;;;;;;53.00;30.30;;;;;;;3.08;83.00;102134.19;5038603;28;20159;-57
2021/11/10 04:02:08;;;;;;;55.92;32.33;;;;;;;3.05;83.25;102130.06;5038014;28;20079;-56
2021/11/10 04:04:33;;;;;;;50.05;30.02;;;;;;;3.04;83.71;102125.66;5038477;28;20029;-56
2021/11/10 04:06:59;;;;;;;53.88;31.15;;;;;;;3.05;83.76;102129.25;5038526;28;20401;-58
2021/11/10 04:09:25;;;;;;;53.05;31.08;;;;;;;3.02;83.54;102135.44;5038017;28;20021;-56
2021/11/10 04:11:51;;;;;;;62.17;35.90;;;;;;;2.98;83.75;102134.38;5038152;28;20037;-55
2021/11/10 04:14:16;;;;;;;61.10;36.35;;;;;;;2.98;83.72;102129.63;5038146;28;20028;-59
2021/11/10 04:16:42;;;;;;;61.50;35.10;;;;;;;3.03;83.34;102120.41;5038302;28;20427;-56
2021/11/10 04:19:07;;;;;;;56.15;33.75;;;;;;;2.96;82.29;102125.53;5037761;28;20028;-58
2021/11/10 04:21:33;;;;;;;55.65;34.53;;;;;;;2.90;82.74;102126.78;5038166;28;20042;-55
2021/11/10 04:23:59;;;;;;;57.33;32.47;;;;;;;2.89;83.04;102125.13;5038001;28;20026;-59
2021/11/10 04:26:29;;;;;;;58.05;32.80;;;;;;;2.92;83.05;102127.28;5037858;28;20590;-57
2021/11/10 04:28:55;;;;;;;51.63;31.10;;;;;;;2.94;82.51;102128.63;5037814;28;20028;-58
2021/11/10 04:31:21;;;;;;;58.05;33.30;;;;;;;2.88;82.47;102123.47;5037645;28;20313;-58
2021/11/10 04:33:47;;;;;;;59.97;34.65;;;;;;;2.86;82.32;102118.22;5037729;28;20041;-57
2021/11/10 04:36:13;;;;;;;61.53;32.92;;;;;;;2.89;81.87;102116.78;5024176;28;20060;-59
2021/11/10 04:38:39;;;;;;;74.55;39.20;;;;;;;2.93;81.72;102109.47;5037887;28;20104;-57
2021/11/10 04:41:04;;;;;;;62.03;35.10;;;;;;;2.90;80.71;102115.66;5036489;28;20048;-55
2021/11/10 04:43:30;;;;;;;63.85;35.58;;;;;;;2.81;80.92;102106.41;5037759;28;20033;-55
2021/11/10 04:48:50;;;;;;;60.20;33.33;;;;;;;2.64;82.08;102118.94;5024263;28;20045;-57
2021/11/10 04:51:17;;;;;;;68.00;37.70;;;;;;;2.61;82.34;102118.72;5019440;28;20033;-58
2021/11/10 04:53:46;;;;;;;63.88;35.58;;;;;;;2.50;82.10;102112.56;5037403;28;20447;-54
2021/11/10 04:56:11;;;;;;;64.97;36.35;;;;;;;2.46;82.47;102123.44;5044922;28;20037;-57
2021/11/10 04:58:38;;;;;;;66.25;33.92;;;;;;;2.41;83.11;102117.16;5045074;28;20295;-58
2021/11/10 05:01:03;;;;;;;73.93;35.90;;;;;;;2.50;83.70;102120.88;5035621;28;20079;-59
2021/11/10 05:03:29;;;;;;;67.32;35.80;;;;;;;2.50;82.80;102118.13;5037135;28;20033;-59
2021/11/10 05:05:54;;;;;;;63.42;34.97;;;;;;;2.52;82.98;102129.72;5036763;28;20017;-58
2021/11/10 05:08:20;;;;;;;62.20;32.95;;;;;;;2.53;82.96;102117.50;5036829;28;20025;-59
2021/11/10 05:10:46;;;;;;;70.70;35.45;;;;;;;2.59;83.13;102110.72;5037355;28;20321;-56
2021/11/10 05:13:11;;;;;;;60.40;33.55;;;;;;;2.65;82.75;102108.66;5036693;28;20063;-59
2021/11/10 05:15:37;;;;;;;53.75;31.67;;;;;;;2.69;83.25;102107.72;5036648;28;20045;-58
2021/11/10 05:18:03;;;;;;;61.35;35.03;;;;;;;2.81;82.75;102106.41;5036884;28;20026;-59
2021/11/10 05:20:28;;;;;;;57.10;32.40;;;;;;;2.85;82.57;102105.47;5036919;28;20034;-59
2021/11/10 05:22:54;;;;;;;58.28;34.28;;;;;;;2.85;82.56;102118.53;5034822;28;20103;-57
2021/11/10 05:25:19;;;;;;;59.80;33.58;;;;;;;2.85;82.80;102118.53;5033949;28;20053;-55
2021/11/10 05:27:45;;;;;;;66.10;34.72;;;;;;;2.87;83.32;102110.72;5033737;28;20363;-56
2021/11/10 05:30:12;;;;;;;60.53;33.42;;;;;;;2.86;83.65;102109.06;5036677;28;20084;-56
2021/11/10 05:32:37;;;;;;;60.40;31.98;;;;;;;2.92;83.77;102124.50;5036440;28;20021;-58
2021/11/10 05:35:03;;;;;;;63.72;33.72;;;;;;;2.90;83.50;102121.22;5036790;28;20087;-62
2021/11/10 05:37:29;;;;;;;63.70;31.60;;;;;;;2.88;83.95;102123.47;5036390;28;20112;-56
2021/11/10 05:39:55;;;;;;;55.10;31.50;;;;;;;2.92;83.77;102135.63;5036576;28;20033;-56
2021/11/10 05:42:21;;;;;;;99.53;34.00;;;;;;;2.91;83.57;102145.91;5032824;28;20025;-56
2021/11/10 05:44:47;;;;;;;61.67;33.67;;;;;;;2.76;83.64;102147.03;5033840;28;20075;-57
2021/11/10 05:47:12;;;;;;;91.05;36.25;;;;;;;2.72;84.80;102153.50;5015819;28;20048;-57
2021/11/10 05:49:38;;;;;;;62.25;36.03;;;;;;;2.70;85.81;102156.56;5033118;28;20026;-53
2021/11/10 05:52:05;;;;;;;60.00;37.20;;;;;;;2.70;85.32;102155.75;5028218;28;20108;-58
2021/11/10 05:54:30;;;;;;;84.00;35.40;;;;;;;2.72;85.42;102154.31;5028871;28;20140;-55
2021/11/10 05:56:56;;;;;;;59.58;33.63;;;;;;;2.73;85.00;102160.69;5034781;28;20025;-57
2021/11/10 05:59:21;;;;;;;63.90;33.95;;;;;;;2.68;85.01;102158.84;5030726;28;20026;-56
2021/11/10 06:01:47;;;;;;;50.88;31.42;;;;;;;2.65;85.40;102158.63;5032561;28;20029;-56
2021/11/10 06:04:12;;;;;;;44.95;31.75;;;;;;;2.62;85.12;102159.25;5031865;28;20047;-56
2021/11/10 06:06:39;;;;;;;79.15;32.63;;;;;;;2.58;85.91;102164.59;5031727;28;20037;-56
2021/11/10 06:09:04;;;;;;;47.95;28.52;;;;;;;2.65;86.49;102165.00;5035010;28;20037;-57
2021/11/10 06:11:30;;;;;;;46.97;27.75;;;;;;;2.66;86.39;102160.28;5035391;28;20025;-56
2021/11/10 06:13:55;;;;;;;47.72;25.15;;;;;;;2.66;85.13;102163.06;5035567;28;20048;-55
2021/11/10 06:16:21;;;;;;;45.65;22.98;;;;;;;2.51;85.03;102168.91;5035944;28;20033;-55
2021/11/10 06:18:46;;;;;;;48.17;24.67;;;;;;;2.45;86.18;102163.41;5034412;28;20112;-55
2021/11/10 06:21:12;;;;;;;57.88;24.17;;;;;;;2.28;86.39;102170.69;5034123;28;20040;-56
2021/11/10 06:23:37;;;;;;;52.45;22.42;;;;;;;2.22;87.14;102177.47;5034166;28;20554;-54
2021/11/10 06:26:03;;;;;;;57.47;23.17;;;;;;;2.26;88.45;102176.53;5034252;28;20057;-57
2021/11/10 06:28:28;;;;;;;37.88;21.88;;;;;;;2.31;87.89;102179.22;5033893;28;20423;-57
2021/11/10 06:30:54;;;;;;;38.30;21.90;;;;;;;2.21;87.44;102182.19;5034162;28;20017;-56
2021/11/10 06:33:19;;;;;;;49.85;22.88;;;;;;;2.31;88.68;102197.81;5034990;28;20331;-52
2021/11/10 06:35:45;;;;;;;34.40;20.42;;;;;;;2.34;87.91;102192.50;5035477;28;20034;-54
2021/11/10 06:38:11;;;;;;;33.30;21.08;;;;;;;2.32;87.72;102193.94;5035568;28;20025;-56
2021/11/10 06:40:36;;;;;;;36.58;21.27;;;;;;;2.32;87.73;102199.47;5035453;28;20029;-54
2021/11/10 06:43:01;;;;;;;38.40;21.60;;;;;;;2.35;87.94;102198.88;5035427;28;20026;-55
2021/11/10 06:45:27;;;;;;;34.60;20.30;;;;;;;2.41;88.16;102194.88;5035539;28;20033;-57
2021/11/10 06:47:52;;;;;;;35.72;22.27;;;;;;;2.46;87.98;102200.31;5035235;28;20349;-55
2021/11/10 06:50:18;;;;;;;39.25;23.42;;;;;;;2.38;87.18;102198.25;5035438;28;20025;-52
2021/11/10 06:52:44;;;;;;;35.55;21.02;;;;;;;2.33;87.81;102201.13;5035168;28;20029;-56
2021/11/10 06:55:10;;;;;;;38.80;22.33;;;;;;;2.32;88.59;102202.25;5035701;28;20371;-54
2021/11/10 06:57:37;;;;;;;41.45;19.52;;;;;;;2.35;88.41;102193.31;5049031;28;20108;-56
2021/11/10 07:00:09;;;;;;;39.25;19.73;;;;;;;2.33;88.09;102201.13;5021837;28;20053;-57
2021/11/10 07:02:34;;;;;;;39.50;21.98;;;;;;;2.34;88.90;102202.78;5035428;28;20365;-57
2021/11/10 07:04:59;;;;;;;41.70;19.73;;;;;;;2.30;88.53;102213.66;5040392;28;20052;-56
2021/11/10 07:07:25;;;;;;;33.70;19.70;;;;;;;2.34;89.27;102208.31;5041739;28;20112;-57
2021/11/10 07:09:50;;;;;;;41.08;20.77;;;;;;;2.36;88.86;102208.84;5041619;28;20348;-57
2021/11/10 07:12:16;;;;;;;32.78;18.33;;;;;;;2.38;89.25;102206.56;5041661;28;20080;-53
2021/11/10 07:14:41;;;;;;;41.45;19.13;;;;;;;2.38;89.61;102203.81;5041815;28;20013;-56
2021/11/10 07:17:06;;;;;;;31.40;18.65;;;;;;;2.43;89.17;102206.47;5041508;28;20740;-57
2021/11/10 07:19:34;;;;;;;32.15;18.00;;;;;;;2.53;89.44;102195.22;5042107;28;20023;-56
2021/11/10 07:21:59;;;;;;;30.27;18.13;;;;;;;2.58;89.43;102206.22;5041732;28;20025;-57
2021/11/10 07:24:25;;;;;;;32.03;19.40;;;;;;;2.62;88.26;102207.28;5041379;28;20036;-56
2021/11/10 07:26:51;;;;;;;37.55;19.92;;;;;;;2.59;88.23;102204.28;5042015;28;20329;-56
2021/11/10 07:29:16;;;;;;;31.65;19.23;;;;;;;2.56;88.86;102211.28;5041512;28;20024;-57
2021/11/10 07:31:42;;;;;;;34.78;18.05;;;;;;;2.56;88.89;102205.72;5041613;28;20053;-57
2021/11/10 07:34:07;;;;;;;34.28;18.02;;;;;;;2.61;89.20;102208.41;5041370;28;20675;-54
2021/11/10 07:36:33;;;;;;;38.78;20.48;;;;;;;2.66;89.10;102216.63;5041801;28;20053;-56
2021/11/10 07:38:58;;;;;;;39.25;20.92;;;;;;;2.72;89.54;102212.63;5041180;28;20398;-56
2021/11/10 07:41:36;;;;;;;38.22;19.98;;;;;;;2.77;88.74;102211.75;5041561;28;20025;-57
2021/11/10 07:44:02;;;;;;;30.02;18.92;;;;;;;2.72;88.59;102209.84;5041466;28;20417;-55
2021/11/10 07:46:31;;;;;;;30.77;18.75;;;;;;;2.78;89.31;102203.09;5040281;28;20155;-56
2021/11/10 07:48:58;;;;;;;41.25;21.00;;;;;;;2.78;88.80;102205.06;5041374;28;20368;-56
2021/11/10 07:51:24;;;;;;;32.58;19.45;;;;;;;2.82;89.20;102208.03;5041328;28;20029;-57
2021/11/10 07:53:50;;;;;;;48.08;20.58;;;;;;;2.91;89.84;102206.19;5041182;28;20037;-55
2021/11/10 07:56:16;;;;;;;34.85;20.55;;;;;;;2.91;89.58;102200.63;5044153;28;20060;-56
2021/11/10 07:58:42;;;;;;;34.05;19.30;;;;;;;2.95;89.47;102205.25;5052655;28;20021;-56
2021/11/10 08:01:08;;;;;;;32.78;19.98;;;;;;;3.02;89.89;102207.66;5041089;28;20033;-56
2021/11/10 08:03:34;;;;;;;36.30;20.90;;;;;;;3.06;89.93;102211.47;5041590;28;20025;-56
2021/11/10 08:06:01;;;;;;;34.88;19.30;;;;;;;3.02;89.60;102202.09;5041763;28;20025;-56
2021/11/10 08:08:26;;;;;;;46.30;23.63;;;;;;;3.02;90.31;102200.16;5040941;28;20064;-57
2021/11/10 08:10:55;;;;;;;41.30;20.88;;;;;;;3.05;90.32;102205.09;5041627;28;20390;-56
2021/11/10 08:13:21;;;;;;;34.50;20.58;;;;;;;3.05;90.20;102201.47;5041567;28;20051;-57
2021/11/10 08:15:47;;;;;;;39.17;21.10;;;;;;;3.04;91.04;102205.41;5038008;28;20021;-53
2021/11/10 08:18:13;;;;;;;42.42;22.08;;;;;;;3.06;91.28;102200.34;5038214;28;20117;-55
2021/11/10 08:20:38;;;;;;;43.20;22.52;;;;;;;3.10;91.87;102207.75;5038114;28;20034;-56
2021/11/10 08:23:04;;;;;;;41.08;22.85;;;;;;;3.16;91.71;102213.22;5038054;28;20076;-57
2021/11/10 08:25:30;;;;;;;37.63;20.35;;;;;;;3.23;91.90;102219.16;5037743;28;20472;-53
2021/11/10 08:27:56;;;;;;;43.55;22.75;;;;;;;3.25;91.43;102211.34;5037917;28;20095;-56
2021/11/10 08:30:22;;;;;;;51.45;23.92;;;;;;;3.32;92.42;102218.16;5037928;28;20021;-56
2021/11/10 08:32:50;;;;;;;49.35;25.05;;;;;;;3.39;92.00;102218.56;5037690;28;20064;-53
2021/11/10 08:35:16;;;;;;;53.67;23.92;;;;;;;3.42;91.95;102215.16;5037808;28;20021;-54
2021/11/10 08:37:42;;;;;;;44.17;24.13;;;;;;;3.42;91.97;102217.94;5037573;28;20329;-56
2021/11/10 08:40:09;;;;;;;45.88;24.00;;;;;;;3.51;92.77;102220.81;5037657;28;20029;-55
2021/11/10 08:42:36;;;;;;;40.03;22.65;;;;;;;3.55;92.26;102213.47;5037878;28;20103;-53
2021/11/10 08:45:08;;;;;;;40.08;21.90;;;;;;;3.63;93.01;102206.38;5037844;28;20500;-56
2021/11/10 08:47:35;;;;;;;42.30;24.70;;;;;;;3.64;92.58;102208.03;5037220;28;20076;-56
2021/11/10 08:50:01;;;;;;;40.25;22.90;;;;;;;3.68;93.19;102206.28;5037665;28;20022;-54
2021/11/10 08:52:27;;;;;;;44.03;24.80;;;;;;;3.81;93.79;102213.75;5037309;28;20462;-56
2021/11/10 08:54:54;;;;;;;44.15;23.60;;;;;;;3.93;93.48;102208.47;5037530;28;20121;-51
2021/11/10 08:57:19;;;;;;;40.15;23.38;;;;;;;3.98;93.31;102213.91;5049249;28;20028;-54
2021/11/10 08:59:45;;;;;;;42.80;23.17;;;;;;;4.03;93.07;102201.84;5039564;28;20025;-56
2021/11/10 09:02:10;;;;;;;44.08;24.73;;;;;;;4.11;93.04;102205.81;5037318;28;20520;-51
2021/11/10 09:04:36;;;;;;;40.33;23.92;;;;;;;4.17;92.90;102199.84;5037555;28;20405;-51
2021/11/10 09:07:02;;;;;;;44.75;23.98;;;;;;;4.25;93.35;102206.59;5037236;28;20022;-57
2021/11/10 09:09:28;;;;;;;44.22;25.10;;;;;;;4.30;92.91;102206.47;5036847;28;20030;-54
2021/11/10 09:11:53;;;;;;;43.03;23.63;;;;;;;4.30;93.17;102203.69;5037089;28;20034;-57
2021/11/10 09:14:19;;;;;;;47.47;25.60;;;;;;;4.32;93.33;102198.63;5037434;28;20024;-54
2021/11/10 09:16:46;;;;;;;51.08;27.17;;;;;;;4.35;94.00;102200.78;5037115;28;20055;-56
2021/11/10 09:19:11;;;;;;;44.90;25.73;;;;;;;4.42;94.35;102195.59;5037034;28;20014;-53
2021/11/10 09:21:37;;;;;;;47.40;26.55;;;;;;;4.49;94.22;102193.19;5036956;28;20087;-57
2021/11/10 09:24:04;;;;;;;44.90;25.95;;;;;;;4.61;94.29;102198.16;5037161;28;20025;-56
2021/11/10 09:26:29;;;;;;;45.58;24.77;;;;;;;4.67;94.05;102196.09;5036467;28;20053;-56
2021/11/10 09:28:55;;;;;;;42.65;25.13;;;;;;;4.71;94.03;102192.34;5036651;28;20075;-54
2021/11/10 09:31:22;;;;;;;43.38;25.05;;;;;;;4.79;93.50;102179.59;5036807;28;20075;-49
2021/11/10 09:33:49;;;;;;;47.65;28.92;;;;;;;4.87;93.89;102184.38;5036724;28;20091;-57
2021/11/10 09:36:14;;;;;;;43.28;25.98;;;;;;;4.93;93.56;102177.50;5022988;28;20302;-55
2021/11/10 09:38:40;;;;;;;47.13;25.92;;;;;;;4.97;93.89;102190.50;5036779;28;20033;-54
2021/11/10 09:41:08;;;;;;;43.50;25.33;;;;;;;4.98;93.83;102180.19;5036668;28;20040;-54
2021/11/10 09:43:40;;;;;;;45.15;24.10;;;;;;;5.01;94.39;102170.34;5036565;28;20163;-55
2021/11/10 09:46:07;;;;;;;45.35;26.50;;;;;;;5.05;94.28;102174.97;5036751;28;20025;-57
2021/11/10 09:48:34;;;;;;;43.30;26.05;;;;;;;5.13;94.50;102165.78;5036191;28;20042;-55
2021/11/10 09:51:00;;;;;;;44.95;24.92;;;;;;;5.19;94.28;102170.06;5036542;28;20028;-57
2021/11/10 09:53:26;;;;;;;49.78;27.65;;;;;;;5.23;93.99;102170.28;5036311;28;20045;-53
2021/11/10 09:55:54;;;;;;;47.97;27.50;;;;;;;5.26;94.13;102170.44;5036353;28;20111;-56
2021/11/10 09:58:21;;;;;;;46.70;25.33;;;;;;;5.33;93.87;102163.56;5035336;28;20389;-56
2021/11/10 10:00:54;;;;;;;45.88;27.30;;;;;;;5.38;93.99;102160.63;5036428;28;20036;-56
2021/11/10 10:03:21;;;;;;;52.65;28.92;;;;;;;5.43;94.01;102157.69;5035933;28;20349;-56
2021/11/10 10:05:48;;;;;;;48.67;27.70;;;;;;;5.45;94.14;102155.38;5035986;28;20347;-55
2021/11/10 10:08:16;;;;;;;56.42;30.80;;;;;;;5.49;93.71;102150.81;5035779;28;20048;-57
2021/11/10 10:10:43;;;;;;;53.70;29.30;;;;;;;5.54;93.65;102153.44;5035919;28;20031;-56
2021/11/10 10:13:09;;;;;;;44.67;26.75;;;;;;;5.60;93.36;102140.97;5036147;28;20021;-54
2021/11/10 10:15:36;;;;;;;51.70;28.73;;;;;;;5.63;93.29;102140.31;5035811;28;20017;-53
2021/11/10 10:18:16;;;;;;;52.35;29.92;;;;;;;5.66;93.50;102148.03;5035961;28;20140;-53
2021/11/10 10:20:42;;;;;;;46.78;28.73;;;;;;;5.70;93.43;102146.22;5035904;28;20096;-53
2021/11/10 10:23:18;;;;;;;48.78;29.60;;;;;;;5.73;93.75;102140.00;5035810;28;20057;-53
2021/11/10 10:25:51;;;;;;;52.45;30.92;;;;;;;5.78;94.11;102137.06;5035708;28;20458;-57
2021/11/10 10:28:19;;;;;;;50.08;30.60;;;;;;;5.85;93.87;102131.81;5035984;28;20053;-52
2021/11/10 10:30:51;;;;;;;50.80;29.13;;;;;;;5.90;94.10;102122.47;5035498;28;20021;-54
2021/11/10 10:33:26;;;;;;;49.35;28.95;;;;;;;5.96;94.08;102120.31;5035492;28;20021;-55
2021/11/10 10:36:09;;;;;;;51.67;31.10;;;;;;;6.04;94.21;102120.34;5035692;28;20104;-52
2021/11/10 10:38:48;;;;;;;50.33;30.08;;;;;;;6.06;94.15;102117.22;5035060;28;20400;-55
2021/11/10 10:41:16;;;;;;;50.70;30.95;;;;;;;6.09;94.27;102113.75;5035569;28;20400;-54
2021/11/10 10:43:47;;;;;;;49.95;30.63;;;;;;;6.15;94.53;102118.00;5035562;28;20475;-54
2021/11/10 10:46:14;;;;;;;48.28;30.35;;;;;;;6.22;94.69;102109.94;5035764;28;20064;-55
2021/11/10 10:48:40;;;;;;;55.10;33.72;;;;;;;6.30;94.94;102109.13;5035011;28;20049;-57
2021/11/10 10:51:08;;;;;;;52.33;30.27;;;;;;;6.40;95.48;102108.75;5035662;28;20408;-57
2021/11/10 10:53:52;;;;;;;54.85;30.65;;;;;;;6.46;95.09;102104.63;5035374;28;20017;-51
2021/11/10 10:56:18;;;;;;;51.33;31.33;;;;;;;6.55;94.92;102092.59;5038273;28;20472;-53
2021/11/10 10:58:44;;;;;;;50.05;31.75;;;;;;;6.60;94.39;102090.47;5046273;28;20097;-57
2021/11/10 11:01:30;;;;;;;52.72;31.73;;;;;;;6.68;94.04;102097.16;5035154;28;20045;-55
2021/11/10 11:04:09;;;;;;;60.42;33.67;;;;;;;6.79;93.60;102087.25;5034825;28;20069;-56
2021/11/10 11:06:44;;;;;;;52.00;31.73;;;;;;;6.83;92.71;102082.63;5035212;28;20036;-53
2021/11/10 11:09:25;;;;;;;52.35;32.38;;;;;;;6.85;92.23;102080.31;5035253;28;20312;-55
2021/11/10 11:12:04;;;;;;;55.35;33.50;;;;;;;6.90;92.79;102077.34;5035054;28;20021;-57
2021/11/10 11:14:52;;;;;;;57.60;34.47;;;;;;;6.99;92.74;102072.50;5035207;28;20410;-57
2021/11/10 11:17:17;;;;;;;51.58;32.72;;;;;;;7.13;92.91;102072.28;5034989;28;20025;-52